CheckWX is a tool to help pilots better visualize weather data.  It is not intended as a substitute for an official pre-flight weather briefing.

21:06:01 UTC

KBYI TAF
Burley Municipal Airport
Burley, Idaho, USA
KBYI 242322Z 2500/2524 28009KT P6SM SCT050 FM250200 23006KT P6SM FEW200 FM251800 27008KT P6SM FEW060

May-25@
00:00 UTC

May-25 @ 00:00 UTC

May-25@
02:00 UTC

May-25 @ 02:00 UTC

TAF KBYI 242322Z 2500/2524 28009KT P6SM SCT050

Expired

Wind
  • 280° at 9 KTS
Cloud Levels
  • Scattered at 5,000' AGL

May-25@
02:00 UTC

May-25 @ 02:00 UTC

May-25@
18:00 UTC

May-25 @ 18:00 UTC

FM250200 23006KT P6SM FEW200

Expired

Wind
  • 230° at 6 KTS
Cloud Levels
  • Few at 20,000' AGL

May-25@
18:00 UTC

May-25 @ 18:00 UTC

May-26@
00:00 UTC

May-26 @ 00:00 UTC

FM251800 27008KT P6SM FEW060

From

From Standard forecast or significant change

Wind
  • 270° at 8 KTS
Cloud Levels
  • Few at 6,000' AGL